sensor_id;sensor_type;location;lat;lon;timestamp;temperature;humidity
790;DHT22;378;48.844;9.156;2022-10-16T00:01:18;15.90;99.90
790;DHT22;378;48.844;9.156;2022-10-16T00:03:47;15.90;99.90
790;DHT22;378;48.844;9.156;2022-10-16T00:06:18;15.80;99.90
790;DHT22;378;48.844;9.156;2022-10-16T00:08:47;15.70;99.90
790;DHT22;378;48.844;9.156;2022-10-16T00:11:20;15.60;99.90
790;DHT22;378;48.844;9.156;2022-10-16T00:13:49;15.60;99.90
790;DHT22;378;48.844;9.156;2022-10-16T00:16:19;15.50;99.90
790;DHT22;378;48.844;9.156;2022-10-16T00:18:50;15.40;99.90
790;DHT22;378;48.844;9.156;2022-10-16T00:21:19;15.30;99.90
790;DHT22;378;48.844;9.156;2022-10-16T00:23:50;15.40;99.90
790;DHT22;378;48.844;9.156;2022-10-16T00:26:20;15.40;99.90
790;DHT22;378;48.844;9.156;2022-10-16T00:28:47;15.30;99.90
790;DHT22;378;48.844;9.156;2022-10-16T00:31:23;15.30;99.90
790;DHT22;378;48.844;9.156;2022-10-16T00:33:56;15.20;99.90
790;DHT22;378;48.844;9.156;2022-10-16T00:36:26;15.20;99.90
790;DHT22;378;48.844;9.156;2022-10-16T00:39:14;15.20;99.90
790;DHT22;378;48.844;9.156;2022-10-16T00:41:44;15.20;99.90
790;DHT22;378;48.844;9.156;2022-10-16T00:44:51;15.20;99.90
790;DHT22;378;48.844;9.156;2022-10-16T00:47:24;15.20;99.90
790;DHT22;378;48.844;9.156;2022-10-16T00:49:57;15.20;99.90
790;DHT22;378;48.844;9.156;2022-10-16T00:52:27;15.10;99.90
790;DHT22;378;48.844;9.156;2022-10-16T00:55:09;15.10;99.90
790;DHT22;378;48.844;9.156;2022-10-16T00:57:36;15.00;99.90
790;DHT22;378;48.844;9.156;2022-10-16T01:00:14;15.00;99.90
790;DHT22;378;48.844;9.156;2022-10-16T01:02:43;15.00;99.90
790;DHT22;378;48.844;9.156;2022-10-16T01:05:18;15.00;99.90
790;DHT22;378;48.844;9.156;2022-10-16T01:07:56;15.00;99.90
790;DHT22;378;48.844;9.156;2022-10-16T01:10:35;15.00;99.90
790;DHT22;378;48.844;9.156;2022-10-16T01:13:07;15.10;99.90
790;DHT22;378;48.844;9.156;2022-10-16T01:15:42;15.10;99.90
790;DHT22;378;48.844;9.156;2022-10-16T01:18:14;15.10;99.90
790;DHT22;378;48.844;9.156;2022-10-16T01:20:51;15.10;99.90
790;DHT22;378;48.844;9.156;2022-10-16T01:23:37;15.20;99.90
790;DHT22;378;48.844;9.156;2022-10-16T01:26:20;15.20;99.90
790;DHT22;378;48.844;9.156;2022-10-16T01:28:56;15.30;99.90
790;DHT22;378;48.844;9.156;2022-10-16T01:31:36;15.30;99.90
790;DHT22;378;48.844;9.156;2022-10-16T01:34:08;15.30;99.90
790;DHT22;378;48.844;9.156;2022-10-16T01:36:40;15.30;99.90
790;DHT22;378;48.844;9.156;2022-10-16T01:39:19;15.40;99.90
790;DHT22;378;48.844;9.156;2022-10-16T01:41:54;15.40;99.90
790;DHT22;378;48.844;9.156;2022-10-16T01:44:39;15.50;99.90
790;DHT22;378;48.844;9.156;2022-10-16T01:47:14;15.50;99.90
790;DHT22;378;48.844;9.156;2022-10-16T01:49:43;15.50;99.90
790;DHT22;378;48.844;9.156;2022-10-16T01:52:22;15.50;99.90
790;DHT22;378;48.844;9.156;2022-10-16T01:54:54;15.50;99.90
790;DHT22;378;48.844;9.156;2022-10-16T01:57:32;15.50;99.90
790;DHT22;378;48.844;9.156;2022-10-16T02:00:08;15.60;99.90
790;DHT22;378;48.844;9.156;2022-10-16T02:02:36;15.60;99.90
790;DHT22;378;48.844;9.156;2022-10-16T02:05:10;15.70;99.90
790;DHT22;378;48.844;9.156;2022-10-16T02:07:40;15.70;99.90
790;DHT22;378;48.844;9.156;2022-10-16T02:10:10;15.70;99.90
790;DHT22;378;48.844;9.156;2022-10-16T02:12:40;15.70;99.90
790;DHT22;378;48.844;9.156;2022-10-16T02:15:22;15.60;99.90
790;DHT22;378;48.844;9.156;2022-10-16T02:18:06;15.60;99.90
790;DHT22;378;48.844;9.156;2022-10-16T02:20:42;15.60;99.90
790;DHT22;378;48.844;9.156;2022-10-16T02:23:18;15.70;99.90
790;DHT22;378;48.844;9.156;2022-10-16T02:25:56;15.70;99.90
790;DHT22;378;48.844;9.156;2022-10-16T02:28:33;15.70;99.90
790;DHT22;378;48.844;9.156;2022-10-16T02:31:15;15.60;99.90
790;DHT22;378;48.844;9.156;2022-10-16T02:33:59;15.60;99.90
790;DHT22;378;48.844;9.156;2022-10-16T02:36:27;15.70;99.90
790;DHT22;378;48.844;9.156;2022-10-16T02:39:03;15.60;99.90
790;DHT22;378;48.844;9.156;2022-10-16T02:42:02;15.70;99.90
790;DHT22;378;48.844;9.156;2022-10-16T02:44:32;15.70;99.90
790;DHT22;378;48.844;9.156;2022-10-16T02:47:06;15.60;99.90
790;DHT22;378;48.844;9.156;2022-10-16T02:49:33;15.50;99.90
790;DHT22;378;48.844;9.156;2022-10-16T02:52:11;15.40;99.90
790;DHT22;378;48.844;9.156;2022-10-16T02:54:46;15.40;99.90
790;DHT22;378;48.844;9.156;2022-10-16T02:57:27;15.40;99.90
790;DHT22;378;48.844;9.156;2022-10-16T02:59:56;15.30;99.90
790;DHT22;378;48.844;9.156;2022-10-16T03:02:27;15.30;99.90
790;DHT22;378;48.844;9.156;2022-10-16T03:04:57;15.30;99.90
790;DHT22;378;48.844;9.156;2022-10-16T03:07:26;15.30;99.90
790;DHT22;378;48.844;9.156;2022-10-16T03:09:58;15.30;99.90
790;DHT22;378;48.844;9.156;2022-10-16T03:12:30;15.40;99.90
790;DHT22;378;48.844;9.156;2022-10-16T03:15:00;15.50;99.90
790;DHT22;378;48.844;9.156;2022-10-16T03:17:42;15.40;99.90
790;DHT22;378;48.844;9.156;2022-10-16T03:20:10;15.50;99.90
790;DHT22;378;48.844;9.156;2022-10-16T03:22:48;15.50;99.90
790;DHT22;378;48.844;9.156;2022-10-16T03:25:22;15.50;99.90
790;DHT22;378;48.844;9.156;2022-10-16T03:27:52;15.50;99.90
790;DHT22;378;48.844;9.156;2022-10-16T03:30:24;15.40;99.90
790;DHT22;378;48.844;9.156;2022-10-16T03:32:57;15.40;99.90
790;DHT22;378;48.844;9.156;2022-10-16T03:35:26;15.40;99.90
790;DHT22;378;48.844;9.156;2022-10-16T03:37:56;15.40;99.90
790;DHT22;378;48.844;9.156;2022-10-16T03:40:26;15.40;99.90
790;DHT22;378;48.844;9.156;2022-10-16T03:42:53;15.30;99.90
790;DHT22;378;48.844;9.156;2022-10-16T03:45:23;15.30;99.90
790;DHT22;378;48.844;9.156;2022-10-16T03:48:00;15.20;99.90
790;DHT22;378;48.844;9.156;2022-10-16T03:50:28;15.20;99.90
790;DHT22;378;48.844;9.156;2022-10-16T03:52:55;15.20;99.90
790;DHT22;378;48.844;9.156;2022-10-16T03:55:25;15.20;99.90
790;DHT22;378;48.844;9.156;2022-10-16T03:57:54;15.10;99.90
790;DHT22;378;48.844;9.156;2022-10-16T04:00:27;15.10;99.90
790;DHT22;378;48.844;9.156;2022-10-16T04:03:03;15.10;99.90
790;DHT22;378;48.844;9.156;2022-10-16T04:05:35;15.00;99.90
790;DHT22;378;48.844;9.156;2022-10-16T04:08:02;15.10;99.90
790;DHT22;378;48.844;9.156;2022-10-16T04:10:41;15.10;99.90
790;DHT22;378;48.844;9.156;2022-10-16T04:13:12;15.10;99.90
790;DHT22;378;48.844;9.156;2022-10-16T04:15:42;15.10;99.90
790;DHT22;378;48.844;9.156;2022-10-16T04:18:16;15.10;99.90
790;DHT22;378;48.844;9.156;2022-10-16T04:20:45;15.10;99.90
790;DHT22;378;48.844;9.156;2022-10-16T04:23:15;15.00;99.90
790;DHT22;378;48.844;9.156;2022-10-16T04:25:46;15.00;99.90
790;DHT22;378;48.844;9.156;2022-10-16T04:28:17;15.00;99.90
790;DHT22;378;48.844;9.156;2022-10-16T04:30:50;15.00;99.90
790;DHT22;378;48.844;9.156;2022-10-16T04:33:21;15.10;99.90
790;DHT22;378;48.844;9.156;2022-10-16T04:35:56;15.10;99.90
790;DHT22;378;48.844;9.156;2022-10-16T04:38:23;15.10;99.90
790;DHT22;378;48.844;9.156;2022-10-16T04:40:54;15.10;99.90
790;DHT22;378;48.844;9.156;2022-10-16T04:43:28;15.10;99.90
790;DHT22;378;48.844;9.156;2022-10-16T04:45:57;15.10;99.90
790;DHT22;378;48.844;9.156;2022-10-16T04:48:29;15.10;99.90
790;DHT22;378;48.844;9.156;2022-10-16T04:51:04;15.10;99.90
790;DHT22;378;48.844;9.156;2022-10-16T04:53:34;15.10;99.90
790;DHT22;378;48.844;9.156;2022-10-16T04:56:06;15.10;99.90
790;DHT22;378;48.844;9.156;2022-10-16T04:58:35;15.00;99.90
790;DHT22;378;48.844;9.156;2022-10-16T05:01:04;15.00;99.90
790;DHT22;378;48.844;9.156;2022-10-16T05:03:41;15.00;99.90
790;DHT22;378;48.844;9.156;2022-10-16T05:06:11;15.10;99.90
790;DHT22;378;48.844;9.156;2022-10-16T05:08:40;15.00;99.90
790;DHT22;378;48.844;9.156;2022-10-16T05:11:19;15.00;99.90
790;DHT22;378;48.844;9.156;2022-10-16T05:14:02;15.10;99.90
790;DHT22;378;48.844;9.156;2022-10-16T05:16:30;15.10;99.90
790;DHT22;378;48.844;9.156;2022-10-16T05:19:03;15.10;99.90
790;DHT22;378;48.844;9.156;2022-10-16T05:21:30;14.90;99.90
790;DHT22;378;48.844;9.156;2022-10-16T05:24:00;14.90;99.90
790;DHT22;378;48.844;9.156;2022-10-16T05:26:27;14.80;99.90
790;DHT22;378;48.844;9.156;2022-10-16T05:28:56;14.80;99.90
790;DHT22;378;48.844;9.156;2022-10-16T05:31:29;14.90;99.90
790;DHT22;378;48.844;9.156;2022-10-16T05:33:59;14.90;99.90
790;DHT22;378;48.844;9.156;2022-10-16T05:36:36;15.00;99.90
790;DHT22;378;48.844;9.156;2022-10-16T05:39:13;14.90;99.90
790;DHT22;378;48.844;9.156;2022-10-16T05:41:40;14.90;99.90
790;DHT22;378;48.844;9.156;2022-10-16T05:44:21;14.90;99.90
790;DHT22;378;48.844;9.156;2022-10-16T05:46:51;14.90;99.90
790;DHT22;378;48.844;9.156;2022-10-16T05:49:37;14.90;99.90
790;DHT22;378;48.844;9.156;2022-10-16T05:52:15;14.90;99.90
790;DHT22;378;48.844;9.156;2022-10-16T05:54:43;14.90;99.90
790;DHT22;378;48.844;9.156;2022-10-16T05:57:17;14.90;99.90
790;DHT22;378;48.844;9.156;2022-10-16T05:59:44;15.00;99.90
790;DHT22;378;48.844;9.156;2022-10-16T06:02:12;15.00;99.90
790;DHT22;378;48.844;9.156;2022-10-16T06:04:40;15.00;99.90
790;DHT22;378;48.844;9.156;2022-10-16T06:07:08;15.10;99.90
790;DHT22;378;48.844;9.156;2022-10-16T06:09:34;15.10;99.90
790;DHT22;378;48.844;9.156;2022-10-16T06:12:01;15.00;99.90
790;DHT22;378;48.844;9.156;2022-10-16T06:14:28;15.00;99.90
790;DHT22;378;48.844;9.156;2022-10-16T06:16:55;15.00;99.90
790;DHT22;378;48.844;9.156;2022-10-16T06:19:22;15.00;99.90
790;DHT22;378;48.844;9.156;2022-10-16T06:21:55;14.90;99.90
790;DHT22;378;48.844;9.156;2022-10-16T06:24:28;14.90;99.90
790;DHT22;378;48.844;9.156;2022-10-16T06:26:55;14.90;99.90
790;DHT22;378;48.844;9.156;2022-10-16T06:29:24;14.90;99.90
790;DHT22;378;48.844;9.156;2022-10-16T06:32:05;14.90;99.90
790;DHT22;378;48.844;9.156;2022-10-16T06:34:35;15.10;99.90
790;DHT22;378;48.844;9.156;2022-10-16T06:37:03;15.10;99.90
790;DHT22;378;48.844;9.156;2022-10-16T06:39:32;15.20;99.90
790;DHT22;378;48.844;9.156;2022-10-16T06:41:59;15.20;99.90
790;DHT22;378;48.844;9.156;2022-10-16T06:44:26;15.30;99.90
790;DHT22;378;48.844;9.156;2022-10-16T06:46:53;15.40;99.90
790;DHT22;378;48.844;9.156;2022-10-16T06:49:19;15.40;99.90
790;DHT22;378;48.844;9.156;2022-10-16T06:51:48;15.50;99.90
790;DHT22;378;48.844;9.156;2022-10-16T06:54:16;15.50;99.90
790;DHT22;378;48.844;9.156;2022-10-16T06:56:43;15.60;99.90
790;DHT22;378;48.844;9.156;2022-10-16T06:59:11;15.60;99.90
790;DHT22;378;48.844;9.156;2022-10-16T07:01:38;15.60;99.90
790;DHT22;378;48.844;9.156;2022-10-16T07:04:07;15.60;99.90
790;DHT22;378;48.844;9.156;2022-10-16T07:06:34;15.70;99.90
790;DHT22;378;48.844;9.156;2022-10-16T07:09:03;15.80;99.90
790;DHT22;378;48.844;9.156;2022-10-16T07:11:32;15.90;99.90
790;DHT22;378;48.844;9.156;2022-10-16T07:14:10;16.00;99.90
790;DHT22;378;48.844;9.156;2022-10-16T07:16:40;16.00;99.90
790;DHT22;378;48.844;9.156;2022-10-16T07:19:10;16.20;99.90
790;DHT22;378;48.844;9.156;2022-10-16T07:21:43;16.20;99.90
790;DHT22;378;48.844;9.156;2022-10-16T07:24:15;16.20;99.90
790;DHT22;378;48.844;9.156;2022-10-16T07:26:45;16.10;99.90
790;DHT22;378;48.844;9.156;2022-10-16T07:29:22;16.10;99.90
790;DHT22;378;48.844;9.156;2022-10-16T07:31:49;16.10;99.90
790;DHT22;378;48.844;9.156;2022-10-16T07:34:18;16.00;99.90
790;DHT22;378;48.844;9.156;2022-10-16T07:36:47;16.00;99.90
790;DHT22;378;48.844;9.156;2022-10-16T07:39:14;16.00;99.90
790;DHT22;378;48.844;9.156;2022-10-16T07:41:43;16.00;99.90
790;DHT22;378;48.844;9.156;2022-10-16T07:44:09;15.90;99.90
790;DHT22;378;48.844;9.156;2022-10-16T07:46:36;15.90;99.90
790;DHT22;378;48.844;9.156;2022-10-16T07:49:03;16.00;99.90
790;DHT22;378;48.844;9.156;2022-10-16T07:51:30;16.00;99.90
790;DHT22;378;48.844;9.156;2022-10-16T07:53:57;16.10;99.90
790;DHT22;378;48.844;9.156;2022-10-16T07:56:24;16.20;99.90
790;DHT22;378;48.844;9.156;2022-10-16T07:58:52;16.40;99.90
790;DHT22;378;48.844;9.156;2022-10-16T08:01:19;16.50;99.90
790;DHT22;378;48.844;9.156;2022-10-16T08:03:48;16.60;99.90
790;DHT22;378;48.844;9.156;2022-10-16T08:06:15;16.70;99.90
790;DHT22;378;48.844;9.156;2022-10-16T08:08:42;16.90;99.90
790;DHT22;378;48.844;9.156;2022-10-16T08:11:10;16.90;99.90
790;DHT22;378;48.844;9.156;2022-10-16T08:13:37;17.00;99.90
790;DHT22;378;48.844;9.156;2022-10-16T08:16:06;17.10;99.90
790;DHT22;378;48.844;9.156;2022-10-16T08:18:33;17.20;99.90
790;DHT22;378;48.844;9.156;2022-10-16T08:21:01;17.40;99.90
790;DHT22;378;48.844;9.156;2022-10-16T08:23:28;17.50;99.90
790;DHT22;378;48.844;9.156;2022-10-16T08:25:56;17.70;99.90
790;DHT22;378;48.844;9.156;2022-10-16T08:28:28;17.90;99.90
790;DHT22;378;48.844;9.156;2022-10-16T08:30:54;18.30;99.90
790;DHT22;378;48.844;9.156;2022-10-16T08:33:23;18.60;99.90
790;DHT22;378;48.844;9.156;2022-10-16T08:35:51;18.80;99.90
790;DHT22;378;48.844;9.156;2022-10-16T08:38:19;18.80;99.90
790;DHT22;378;48.844;9.156;2022-10-16T08:40:46;18.80;99.90
790;DHT22;378;48.844;9.156;2022-10-16T08:43:26;18.90;99.90
790;DHT22;378;48.844;9.156;2022-10-16T08:46:09;18.90;99.90
790;DHT22;378;48.844;9.156;2022-10-16T08:48:47;19.00;99.90
790;DHT22;378;48.844;9.156;2022-10-16T08:51:19;19.00;99.90
790;DHT22;378;48.844;9.156;2022-10-16T08:53:51;19.00;99.90
790;DHT22;378;48.844;9.156;2022-10-16T08:56:19;19.00;99.90
790;DHT22;378;48.844;9.156;2022-10-16T08:58:47;19.10;99.90
790;DHT22;378;48.844;9.156;2022-10-16T09:01:16;19.10;99.90
790;DHT22;378;48.844;9.156;2022-10-16T09:03:58;19.10;99.90
790;DHT22;378;48.844;9.156;2022-10-16T09:06:40;19.20;99.90
790;DHT22;378;48.844;9.156;2022-10-16T09:12:07;19.20;99.90
790;DHT22;378;48.844;9.156;2022-10-16T09:14:49;19.30;99.90
790;DHT22;378;48.844;9.156;2022-10-16T09:17:39;19.30;99.90
790;DHT22;378;48.844;9.156;2022-10-16T09:20:38;19.30;99.90
790;DHT22;378;48.844;9.156;2022-10-16T09:23:14;19.50;99.90
790;DHT22;378;48.844;9.156;2022-10-16T09:25:44;19.70;99.90
790;DHT22;378;48.844;9.156;2022-10-16T09:28:13;19.90;99.90
790;DHT22;378;48.844;9.156;2022-10-16T09:30:40;20.10;99.90
790;DHT22;378;48.844;9.156;2022-10-16T09:33:17;20.20;99.90
790;DHT22;378;48.844;9.156;2022-10-16T09:35:48;20.30;99.90
790;DHT22;378;48.844;9.156;2022-10-16T09:38:24;20.40;99.90
790;DHT22;378;48.844;9.156;2022-10-16T09:40:52;20.30;99.90
790;DHT22;378;48.844;9.156;2022-10-16T09:43:22;20.30;99.90
790;DHT22;378;48.844;9.156;2022-10-16T09:45:55;20.20;99.90
790;DHT22;378;48.844;9.156;2022-10-16T09:48:22;20.20;99.90
790;DHT22;378;48.844;9.156;2022-10-16T09:50:58;20.00;99.90
790;DHT22;378;48.844;9.156;2022-10-16T09:53:37;19.80;99.90
790;DHT22;378;48.844;9.156;2022-10-16T09:56:05;19.80;99.90
790;DHT22;378;48.844;9.156;2022-10-16T09:58:33;19.90;99.90
790;DHT22;378;48.844;9.156;2022-10-16T10:00:59;20.10;99.90
790;DHT22;378;48.844;9.156;2022-10-16T10:03:37;20.40;99.90
790;DHT22;378;48.844;9.156;2022-10-16T10:06:22;20.80;99.90
790;DHT22;378;48.844;9.156;2022-10-16T10:08:56;21.10;99.90
790;DHT22;378;48.844;9.156;2022-10-16T10:11:47;21.30;99.90
790;DHT22;378;48.844;9.156;2022-10-16T10:14:19;21.40;99.90
790;DHT22;378;48.844;9.156;2022-10-16T10:16:47;21.60;99.90
790;DHT22;378;48.844;9.156;2022-10-16T10:19:16;21.60;99.90
790;DHT22;378;48.844;9.156;2022-10-16T10:21:45;21.70;99.90
790;DHT22;378;48.844;9.156;2022-10-16T10:24:13;21.70;99.90
790;DHT22;378;48.844;9.156;2022-10-16T10:26:48;21.90;99.90
790;DHT22;378;48.844;9.156;2022-10-16T10:29:23;22.10;99.90
790;DHT22;378;48.844;9.156;2022-10-16T10:31:56;22.50;99.90
790;DHT22;378;48.844;9.156;2022-10-16T10:34:39;22.70;99.90
790;DHT22;378;48.844;9.156;2022-10-16T10:37:25;22.90;99.90
790;DHT22;378;48.844;9.156;2022-10-16T10:39:59;23.30;99.90
790;DHT22;378;48.844;9.156;2022-10-16T10:42:34;23.60;99.90
790;DHT22;378;48.844;9.156;2022-10-16T10:45:14;23.80;99.90
790;DHT22;378;48.844;9.156;2022-10-16T10:47:48;23.90;99.90
790;DHT22;378;48.844;9.156;2022-10-16T10:50:24;24.10;99.90
790;DHT22;378;48.844;9.156;2022-10-16T10:52:59;24.30;99.90
790;DHT22;378;48.844;9.156;2022-10-16T10:55:40;24.20;99.90
790;DHT22;378;48.844;9.156;2022-10-16T10:58:36;24.20;99.90
790;DHT22;378;48.844;9.156;2022-10-16T11:01:09;24.10;99.90
790;DHT22;378;48.844;9.156;2022-10-16T11:03:53;24.00;99.90
790;DHT22;378;48.844;9.156;2022-10-16T11:06:25;23.80;99.90
790;DHT22;378;48.844;9.156;2022-10-16T11:08:57;23.70;99.90
790;DHT22;378;48.844;9.156;2022-10-16T11:11:31;23.70;99.90
790;DHT22;378;48.844;9.156;2022-10-16T11:14:02;23.70;99.90
790;DHT22;378;48.844;9.156;2022-10-16T11:16:35;23.60;99.90
790;DHT22;378;48.844;9.156;2022-10-16T11:19:14;23.70;99.90
790;DHT22;378;48.844;9.156;2022-10-16T11:21:49;24.00;99.90
790;DHT22;378;48.844;9.156;2022-10-16T11:24:23;24.20;99.90
790;DHT22;378;48.844;9.156;2022-10-16T11:26:52;24.40;99.90
790;DHT22;378;48.844;9.156;2022-10-16T11:29:25;24.30;99.90
790;DHT22;378;48.844;9.156;2022-10-16T11:31:57;24.30;99.90
790;DHT22;378;48.844;9.156;2022-10-16T11:34:28;24.40;99.90
790;DHT22;378;48.844;9.156;2022-10-16T11:37:02;24.40;99.90
790;DHT22;378;48.844;9.156;2022-10-16T11:39:33;24.40;99.90
790;DHT22;378;48.844;9.156;2022-10-16T11:42:04;24.50;99.90
790;DHT22;378;48.844;9.156;2022-10-16T11:44:42;24.60;99.90
790;DHT22;378;48.844;9.156;2022-10-16T11:47:19;24.70;99.90
790;DHT22;378;48.844;9.156;2022-10-16T11:49:51;24.70;99.90
790;DHT22;378;48.844;9.156;2022-10-16T11:52:24;24.60;99.90
790;DHT22;378;48.844;9.156;2022-10-16T11:54:56;24.50;99.90
790;DHT22;378;48.844;9.156;2022-10-16T11:57:28;24.70;99.90
790;DHT22;378;48.844;9.156;2022-10-16T11:59:58;24.90;99.90
790;DHT22;378;48.844;9.156;2022-10-16T12:02:38;25.20;99.90
790;DHT22;378;48.844;9.156;2022-10-16T12:05:18;25.30;99.90
790;DHT22;378;48.844;9.156;2022-10-16T12:07:52;25.20;99.90
790;DHT22;378;48.844;9.156;2022-10-16T12:10:25;25.30;99.90
790;DHT22;378;48.844;9.156;2022-10-16T12:12:52;25.40;99.90
790;DHT22;378;48.844;9.156;2022-10-16T12:15:22;25.30;99.90
790;DHT22;378;48.844;9.156;2022-10-16T12:17:50;25.20;99.90
790;DHT22;378;48.844;9.156;2022-10-16T12:20:28;25.10;99.90
790;DHT22;378;48.844;9.156;2022-10-16T12:22:59;25.20;99.90
790;DHT22;378;48.844;9.156;2022-10-16T12:25:31;25.30;99.90
790;DHT22;378;48.844;9.156;2022-10-16T12:28:00;25.30;99.90
790;DHT22;378;48.844;9.156;2022-10-16T12:30:30;25.20;99.90
790;DHT22;378;48.844;9.156;2022-10-16T12:32:59;25.10;99.90
790;DHT22;378;48.844;9.156;2022-10-16T12:35:30;25.00;99.90
790;DHT22;378;48.844;9.156;2022-10-16T12:38:12;25.20;99.90
790;DHT22;378;48.844;9.156;2022-10-16T12:40:44;25.30;99.90
790;DHT22;378;48.844;9.156;2022-10-16T12:43:24;25.30;99.90
790;DHT22;378;48.844;9.156;2022-10-16T12:46:00;25.60;99.90
790;DHT22;378;48.844;9.156;2022-10-16T12:48:27;25.70;99.90
790;DHT22;378;48.844;9.156;2022-10-16T12:50:54;25.80;99.90
790;DHT22;378;48.844;9.156;2022-10-16T12:53:22;25.70;99.90
790;DHT22;378;48.844;9.156;2022-10-16T12:56:00;25.80;99.90
790;DHT22;378;48.844;9.156;2022-10-16T12:58:49;25.50;99.90
790;DHT22;378;48.844;9.156;2022-10-16T13:01:29;25.60;99.90
790;DHT22;378;48.844;9.156;2022-10-16T13:06:57;25.90;99.90
790;DHT22;378;48.844;9.156;2022-10-16T13:09:40;26.00;99.90
790;DHT22;378;48.844;9.156;2022-10-16T13:12:25;26.00;99.90
790;DHT22;378;48.844;9.156;2022-10-16T13:15:18;25.90;99.90
790;DHT22;378;48.844;9.156;2022-10-16T13:17:54;25.50;99.90
790;DHT22;378;48.844;9.156;2022-10-16T13:20:30;25.30;99.90
790;DHT22;378;48.844;9.156;2022-10-16T13:23:05;25.20;99.90
790;DHT22;378;48.844;9.156;2022-10-16T13:25:45;25.20;99.90
790;DHT22;378;48.844;9.156;2022-10-16T13:28:16;25.20;99.90
790;DHT22;378;48.844;9.156;2022-10-16T13:30:52;25.20;99.90
790;DHT22;378;48.844;9.156;2022-10-16T13:33:26;25.10;99.90
790;DHT22;378;48.844;9.156;2022-10-16T13:35:57;24.80;99.90
790;DHT22;378;48.844;9.156;2022-10-16T13:38:25;24.50;99.90
790;DHT22;378;48.844;9.156;2022-10-16T13:40:54;24.40;99.90
790;DHT22;378;48.844;9.156;2022-10-16T13:43:26;24.20;99.90
790;DHT22;378;48.844;9.156;2022-10-16T13:45:58;24.20;99.90
790;DHT22;378;48.844;9.156;2022-10-16T13:48:25;24.10;99.90
790;DHT22;378;48.844;9.156;2022-10-16T13:51:03;24.20;99.90
790;DHT22;378;48.844;9.156;2022-10-16T13:53:31;24.40;99.90
790;DHT22;378;48.844;9.156;2022-10-16T13:55:58;24.50;99.90
790;DHT22;378;48.844;9.156;2022-10-16T13:58:35;24.50;99.90
790;DHT22;378;48.844;9.156;2022-10-16T14:01:04;24.60;99.90
790;DHT22;378;48.844;9.156;2022-10-16T14:03:33;24.50;99.90
790;DHT22;378;48.844;9.156;2022-10-16T14:06:02;24.30;99.90
790;DHT22;378;48.844;9.156;2022-10-16T14:08:30;24.20;99.90
790;DHT22;378;48.844;9.156;2022-10-16T14:10:59;24.00;99.90
790;DHT22;378;48.844;9.156;2022-10-16T14:13:31;23.90;99.90
790;DHT22;378;48.844;9.156;2022-10-16T14:16:05;23.70;99.90
790;DHT22;378;48.844;9.156;2022-10-16T14:18:33;23.60;99.90
790;DHT22;378;48.844;9.156;2022-10-16T14:21:05;23.50;99.90
790;DHT22;378;48.844;9.156;2022-10-16T14:23:35;23.50;99.90
790;DHT22;378;48.844;9.156;2022-10-16T14:26:12;23.50;99.90
790;DHT22;378;48.844;9.156;2022-10-16T14:28:42;23.30;99.90
790;DHT22;378;48.844;9.156;2022-10-16T14:31:27;23.20;99.90
790;DHT22;378;48.844;9.156;2022-10-16T14:33:55;23.20;99.90
790;DHT22;378;48.844;9.156;2022-10-16T14:36:22;23.10;99.90
790;DHT22;378;48.844;9.156;2022-10-16T14:38:59;23.00;99.90
790;DHT22;378;48.844;9.156;2022-10-16T14:41:28;23.00;99.90
790;DHT22;378;48.844;9.156;2022-10-16T14:44:01;23.00;99.90
790;DHT22;378;48.844;9.156;2022-10-16T14:46:31;23.00;99.90
790;DHT22;378;48.844;9.156;2022-10-16T14:49:02;22.90;99.90
790;DHT22;378;48.844;9.156;2022-10-16T14:51:30;22.90;99.90
790;DHT22;378;48.844;9.156;2022-10-16T14:53:56;23.00;99.90
790;DHT22;378;48.844;9.156;2022-10-16T14:56:25;23.10;99.90
790;DHT22;378;48.844;9.156;2022-10-16T14:58:53;23.20;99.90
790;DHT22;378;48.844;9.156;2022-10-16T15:01:22;23.20;99.90
790;DHT22;378;48.844;9.156;2022-10-16T15:03:49;23.10;99.90
790;DHT22;378;48.844;9.156;2022-10-16T15:06:18;23.10;99.90
790;DHT22;378;48.844;9.156;2022-10-16T15:08:44;23.00;99.90
790;DHT22;378;48.844;9.156;2022-10-16T15:11:13;23.00;99.90
790;DHT22;378;48.844;9.156;2022-10-16T15:13:40;22.90;99.90
790;DHT22;378;48.844;9.156;2022-10-16T15:16:10;22.90;99.90
790;DHT22;378;48.844;9.156;2022-10-16T15:18:38;22.90;99.90
790;DHT22;378;48.844;9.156;2022-10-16T15:21:05;22.80;99.90
790;DHT22;378;48.844;9.156;2022-10-16T15:23:32;22.70;99.90
790;DHT22;378;48.844;9.156;2022-10-16T15:25:59;22.60;99.90
790;DHT22;378;48.844;9.156;2022-10-16T15:28:26;22.50;99.90
790;DHT22;378;48.844;9.156;2022-10-16T15:30:55;22.40;99.90
790;DHT22;378;48.844;9.156;2022-10-16T15:33:27;22.30;99.90
790;DHT22;378;48.844;9.156;2022-10-16T15:36:01;22.20;99.90
790;DHT22;378;48.844;9.156;2022-10-16T15:38:30;22.20;99.90
790;DHT22;378;48.844;9.156;2022-10-16T15:40:57;22.10;99.90
790;DHT22;378;48.844;9.156;2022-10-16T15:43:24;22.10;99.90
790;DHT22;378;48.844;9.156;2022-10-16T15:45:59;22.00;99.90
790;DHT22;378;48.844;9.156;2022-10-16T15:48:27;21.90;99.90
790;DHT22;378;48.844;9.156;2022-10-16T15:50:54;21.90;99.90
790;DHT22;378;48.844;9.156;2022-10-16T15:53:22;21.90;99.90
790;DHT22;378;48.844;9.156;2022-10-16T15:55:49;21.80;99.90
790;DHT22;378;48.844;9.156;2022-10-16T15:58:15;21.80;99.90
790;DHT22;378;48.844;9.156;2022-10-16T16:00:42;21.70;99.90
790;DHT22;378;48.844;9.156;2022-10-16T16:03:09;21.70;99.90
790;DHT22;378;48.844;9.156;2022-10-16T16:05:37;21.50;99.90
790;DHT22;378;48.844;9.156;2022-10-16T16:08:04;21.50;99.90
790;DHT22;378;48.844;9.156;2022-10-16T16:10:33;21.40;99.90
790;DHT22;378;48.844;9.156;2022-10-16T16:12:59;21.40;99.90
790;DHT22;378;48.844;9.156;2022-10-16T16:15:26;21.30;99.90
790;DHT22;378;48.844;9.156;2022-10-16T16:17:53;21.20;99.90
790;DHT22;378;48.844;9.156;2022-10-16T16:20:20;21.10;99.90
790;DHT22;378;48.844;9.156;2022-10-16T16:22:47;20.90;99.90
790;DHT22;378;48.844;9.156;2022-10-16T16:25:14;20.70;99.90
790;DHT22;378;48.844;9.156;2022-10-16T16:27:44;20.60;99.90
790;DHT22;378;48.844;9.156;2022-10-16T16:30:11;20.40;99.90
790;DHT22;378;48.844;9.156;2022-10-16T16:32:39;20.30;99.90
790;DHT22;378;48.844;9.156;2022-10-16T16:35:06;20.20;99.90
790;DHT22;378;48.844;9.156;2022-10-16T16:37:33;20.00;99.90
790;DHT22;378;48.844;9.156;2022-10-16T16:40:00;19.90;99.90
790;DHT22;378;48.844;9.156;2022-10-16T16:42:27;19.90;99.90
790;DHT22;378;48.844;9.156;2022-10-16T16:44:56;19.80;99.90
790;DHT22;378;48.844;9.156;2022-10-16T16:47:23;19.70;99.90
790;DHT22;378;48.844;9.156;2022-10-16T16:49:49;19.60;99.90
790;DHT22;378;48.844;9.156;2022-10-16T16:52:17;19.60;99.90
790;DHT22;378;48.844;9.156;2022-10-16T16:54:43;19.50;99.90
790;DHT22;378;48.844;9.156;2022-10-16T16:57:17;19.40;99.90
790;DHT22;378;48.844;9.156;2022-10-16T16:59:44;19.30;99.90
790;DHT22;378;48.844;9.156;2022-10-16T17:02:12;19.40;99.90
790;DHT22;378;48.844;9.156;2022-10-16T17:07:11;19.30;99.90
790;DHT22;378;48.844;9.156;2022-10-16T17:09:38;19.40;99.90
790;DHT22;378;48.844;9.156;2022-10-16T17:12:05;19.30;99.90
790;DHT22;378;48.844;9.156;2022-10-16T17:14:31;19.20;99.90